createdAt,value
2018-08-06T00:00:25.858Z,25.17
2018-08-06T00:02:54.418Z,25.15
2018-08-06T00:05:23.036Z,25.12
2018-08-06T00:07:51.763Z,25.10
2018-08-06T00:10:22.048Z,25.07
2018-08-06T00:12:50.706Z,25.06
2018-08-06T00:15:19.615Z,25.02
2018-08-06T00:17:48.199Z,25.01
2018-08-06T00:20:17.495Z,24.98
2018-08-06T00:22:46.248Z,24.98
2018-08-06T00:25:16.054Z,24.96
2018-08-06T00:27:44.958Z,24.96
2018-08-06T00:30:14.695Z,24.93
2018-08-06T00:32:44.148Z,24.91
2018-08-06T00:35:13.258Z,24.89
2018-08-06T00:37:41.874Z,24.89
2018-08-06T00:40:13.093Z,24.87
2018-08-06T00:42:42.263Z,24.86
2018-08-06T00:45:12.485Z,24.84
2018-08-06T00:47:40.984Z,24.85
2018-08-06T00:50:09.860Z,24.82
2018-08-06T00:52:38.870Z,24.81
2018-08-06T00:55:09.982Z,24.79
2018-08-06T00:57:38.692Z,24.77
2018-08-06T01:00:09.247Z,24.77
2018-08-06T01:02:37.858Z,24.76
2018-08-06T01:05:07.636Z,24.73
2018-08-06T01:07:36.517Z,24.67
2018-08-06T01:10:07.002Z,24.64
2018-08-06T01:12:36.576Z,24.58
2018-08-06T01:15:06.224Z,24.54
2018-08-06T01:17:35.172Z,24.51
2018-08-06T01:20:04.993Z,24.44
2018-08-06T01:22:33.745Z,24.39
2018-08-06T01:25:02.596Z,24.37
2018-08-06T01:27:31.681Z,24.31
2018-08-06T01:30:00.708Z,24.25
2018-08-06T01:32:29.651Z,24.22
2018-08-06T01:34:58.610Z,24.19
2018-08-06T01:37:27.577Z,24.15
2018-08-06T01:39:56.485Z,24.11
2018-08-06T01:42:25.899Z,24.08
2018-08-06T01:44:54.714Z,24.05
2018-08-06T01:47:24.011Z,24.02
2018-08-06T01:49:52.541Z,23.99
2018-08-06T01:52:21.849Z,23.97
2018-08-06T01:54:50.872Z,23.92
2018-08-06T01:57:20.601Z,23.85
2018-08-06T01:59:49.860Z,23.77
2018-08-06T02:02:19.111Z,23.75
2018-08-06T02:04:48.042Z,23.74
2018-08-06T02:07:17.091Z,23.71
2018-08-06T02:09:46.069Z,23.69
2018-08-06T02:12:14.975Z,23.67
2018-08-06T02:14:43.633Z,23.65
2018-08-06T02:17:12.287Z,23.62
2018-08-06T02:19:40.997Z,23.55
2018-08-06T02:22:09.662Z,23.50
2018-08-06T02:24:38.297Z,23.47
2018-08-06T02:27:07.061Z,23.43
2018-08-06T02:29:35.646Z,23.40
2018-08-06T02:32:04.272Z,23.41
2018-08-06T02:34:32.898Z,23.39
2018-08-06T02:37:01.508Z,23.38
2018-08-06T02:39:30.102Z,23.32
2018-08-06T02:41:58.737Z,23.26
2018-08-06T02:44:27.268Z,23.21
2018-08-06T02:46:55.938Z,23.17
2018-08-06T02:49:24.602Z,23.13
2018-08-06T02:51:53.216Z,23.15
2018-08-06T02:54:21.889Z,23.12
2018-08-06T02:56:51.127Z,23.14
2018-08-06T02:59:19.755Z,23.15
2018-08-06T03:01:48.408Z,23.15
2018-08-06T03:04:17.067Z,23.13
2018-08-06T03:06:45.757Z,23.10
2018-08-06T03:09:14.343Z,23.11
2018-08-06T03:11:43.098Z,23.07
2018-08-06T03:14:11.795Z,23.06
2018-08-06T03:16:40.638Z,23.06
2018-08-06T03:19:09.156Z,23.07
2018-08-06T03:21:37.707Z,23.04
2018-08-06T03:24:06.288Z,23.03
2018-08-06T03:26:35.006Z,23.02
2018-08-06T03:29:03.591Z,23.00
2018-08-06T03:31:32.233Z,23.00
2018-08-06T03:34:00.853Z,22.99
2018-08-06T03:36:29.481Z,22.98
2018-08-06T03:38:58.119Z,22.98
2018-08-06T03:41:26.909Z,22.99
2018-08-06T03:43:55.732Z,22.99
2018-08-06T03:46:24.373Z,22.98
2018-08-06T03:48:52.957Z,22.98
2018-08-06T03:51:21.577Z,22.96
2018-08-06T03:53:50.256Z,22.92
2018-08-06T03:56:20.733Z,22.92
2018-08-06T03:58:50.541Z,22.91
2018-08-06T04:01:19.225Z,22.89
2018-08-06T04:03:47.900Z,22.88
2018-08-06T04:06:16.896Z,22.88
2018-08-06T04:08:45.508Z,22.89
2018-08-06T04:11:14.159Z,22.89
2018-08-06T04:13:43.493Z,22.87
2018-08-06T04:16:12.196Z,22.86
2018-08-06T04:18:40.812Z,22.87
2018-08-06T04:21:09.377Z,22.88
2018-08-06T04:23:38.012Z,22.89
2018-08-06T04:26:06.702Z,22.92
2018-08-06T04:28:35.280Z,22.93
2018-08-06T04:31:03.939Z,22.94
2018-08-06T04:33:32.651Z,22.98
2018-08-06T04:36:01.380Z,23.00
2018-08-06T04:38:30.239Z,23.02
2018-08-06T04:40:58.924Z,23.02
2018-08-06T04:43:27.612Z,23.04
2018-08-06T04:45:56.239Z,23.03
2018-08-06T04:48:25.835Z,23.04
2018-08-06T04:50:54.538Z,23.03
2018-08-06T04:53:23.214Z,23.02
2018-08-06T04:55:51.895Z,23.06
2018-08-06T04:58:20.619Z,23.07
2018-08-06T05:00:49.306Z,23.11
2018-08-06T05:03:17.956Z,23.15
2018-08-06T05:05:46.616Z,23.19
2018-08-06T05:08:15.524Z,23.22
2018-08-06T05:10:44.272Z,23.28
2018-08-06T05:13:13.085Z,23.31
2018-08-06T05:15:41.978Z,23.35
2018-08-06T05:18:10.679Z,23.40
2018-08-06T05:20:39.525Z,23.41
2018-08-06T05:23:08.298Z,23.48
2018-08-06T05:25:36.996Z,23.54
2018-08-06T05:28:06.022Z,23.62
2018-08-06T05:30:34.739Z,23.68
2018-08-06T05:33:03.384Z,23.72
2018-08-06T05:35:32.010Z,23.80
2018-08-06T05:38:00.660Z,23.85
2018-08-06T05:40:29.485Z,23.95
2018-08-06T05:42:58.112Z,24.02
2018-08-06T05:45:26.737Z,24.09
2018-08-06T05:47:55.341Z,24.18
2018-08-06T05:50:24.029Z,24.30
2018-08-06T05:52:52.932Z,24.42
2018-08-06T05:55:21.501Z,24.62
2018-08-06T05:57:50.223Z,24.93
2018-08-06T06:00:19.463Z,25.21
2018-08-06T06:02:48.289Z,25.60
2018-08-06T06:05:16.989Z,26.16
2018-08-06T06:07:45.745Z,26.78
2018-08-06T06:10:15.667Z,27.41
2018-08-06T06:12:44.285Z,28.04
2018-08-06T06:15:14.553Z,28.66
2018-08-06T06:17:44.050Z,29.32
2018-08-06T06:20:12.694Z,29.96
2018-08-06T06:22:41.362Z,30.51
2018-08-06T06:25:11.715Z,31.05
2018-08-06T06:27:40.406Z,31.59
2018-08-06T06:30:11.698Z,32.03
2018-08-06T06:32:40.476Z,32.52
2018-08-06T06:35:09.112Z,32.95
2018-08-06T06:37:37.899Z,33.23
2018-08-06T06:40:06.730Z,33.59
2018-08-06T06:42:35.380Z,33.98
2018-08-06T06:45:04.735Z,34.36
2018-08-06T06:47:33.454Z,34.62
2018-08-06T06:50:02.052Z,34.65
2018-08-06T06:52:30.824Z,34.83
2018-08-06T06:54:59.485Z,34.85
2018-08-06T06:57:28.212Z,34.90
2018-08-06T06:59:57.032Z,35.03
2018-08-06T07:02:28.449Z,35.27
2018-08-06T07:04:57.400Z,35.67
2018-08-06T07:07:26.793Z,35.83
2018-08-06T07:09:55.638Z,36.16
2018-08-06T07:12:25.285Z,36.46
2018-08-06T07:14:53.989Z,36.77
2018-08-06T07:17:22.616Z,36.92
2018-08-06T07:19:51.274Z,36.96
2018-08-06T07:22:19.876Z,37.26
2018-08-06T07:24:48.766Z,37.50
2018-08-06T07:27:17.623Z,37.85
2018-08-06T07:29:46.248Z,38.05
2018-08-06T07:32:14.863Z,38.30
2018-08-06T07:34:43.471Z,38.61
2018-08-06T07:37:12.095Z,38.70
2018-08-06T07:39:40.716Z,38.98
2018-08-06T07:42:12.433Z,39.16
2018-08-06T07:44:40.978Z,39.40
2018-08-06T07:47:09.504Z,39.75
2018-08-06T07:49:38.394Z,40.17
2018-08-06T07:52:07.037Z,40.62
2018-08-06T07:54:35.674Z,40.96
2018-08-06T07:57:04.362Z,41.13
2018-08-06T07:59:32.969Z,41.27
2018-08-06T08:02:01.590Z,41.36
2018-08-06T08:04:30.303Z,41.62
2018-08-06T08:06:58.891Z,41.74
2018-08-06T08:09:27.566Z,42.05
2018-08-06T08:11:56.301Z,42.02
2018-08-06T08:14:25.212Z,41.96
2018-08-06T08:16:53.808Z,41.55
2018-08-06T08:19:22.538Z,41.71
2018-08-06T08:21:51.223Z,41.72
2018-08-06T08:24:19.838Z,41.82
2018-08-06T08:26:48.499Z,41.75
2018-08-06T08:29:17.152Z,41.95
2018-08-06T08:31:45.785Z,42.07
2018-08-06T08:34:14.598Z,41.91
2018-08-06T08:36:43.193Z,41.59
2018-08-06T08:39:12.874Z,41.72
2018-08-06T08:41:41.604Z,41.87
2018-08-06T08:44:10.180Z,42.12
2018-08-06T08:46:38.661Z,42.54
2018-08-06T08:49:07.203Z,43.14
2018-08-06T08:51:35.854Z,43.71
2018-08-06T08:54:04.441Z,43.92
2018-08-06T08:56:33.025Z,44.06
2018-08-06T08:59:01.597Z,44.25
2018-08-06T09:01:30.148Z,44.52
2018-08-06T09:03:58.712Z,44.46
2018-08-06T09:06:27.288Z,44.52
2018-08-06T09:08:56.017Z,44.62
2018-08-06T09:11:26.876Z,44.62
2018-08-06T09:13:58.167Z,44.98
2018-08-06T09:16:27.054Z,45.44
2018-08-06T09:18:55.645Z,45.82
2018-08-06T09:21:24.288Z,45.77
2018-08-06T09:23:52.867Z,46.01
2018-08-06T09:26:21.629Z,46.17
2018-08-06T09:28:50.231Z,46.42
2018-08-06T09:31:19.038Z,46.77
2018-08-06T09:34:08.752Z,47.28
2018-08-06T09:36:42.316Z,47.91
2018-08-06T09:39:30.202Z,48.37
2018-08-06T09:45:03.817Z,49.86
2018-08-06T09:47:41.110Z,50.41
2018-08-06T09:50:11.767Z,50.58
2018-08-06T09:52:40.768Z,50.23
2018-08-06T09:55:12.720Z,49.95
2018-08-06T09:57:41.876Z,49.46
2018-08-06T10:00:18.513Z,48.04
2018-08-06T10:02:47.567Z,47.43
2018-08-06T10:05:16.232Z,48.19
2018-08-06T10:07:45.363Z,48.85
2018-08-06T10:10:14.352Z,49.62
2018-08-06T10:12:43.720Z,50.62
2018-08-06T10:15:12.780Z,51.54
2018-08-06T10:17:42.976Z,51.85
2018-08-06T10:20:13.560Z,51.97
2018-08-06T10:22:42.155Z,52.57
2018-08-06T10:25:12.108Z,53.23
2018-08-06T10:27:41.650Z,53.91
2018-08-06T10:30:14.268Z,54.30
2018-08-06T10:32:42.946Z,54.20
2018-08-06T10:35:12.586Z,54.31
2018-08-06T10:37:41.185Z,54.64
2018-08-06T10:40:13.485Z,55.07
2018-08-06T10:42:42.655Z,55.47
2018-08-06T10:45:13.490Z,55.62
2018-08-06T10:47:42.380Z,55.57
2018-08-06T10:50:11.067Z,55.82
2018-08-06T10:52:39.826Z,56.39
2018-08-06T10:55:09.302Z,57.06
2018-08-06T10:57:38.472Z,57.63
2018-08-06T11:00:11.912Z,58.40
2018-08-06T11:02:40.607Z,59.04
2018-08-06T11:05:10.344Z,59.39
2018-08-06T11:07:39.128Z,59.26
2018-08-06T11:10:10.657Z,59.02
2018-08-06T11:12:39.666Z,58.92
2018-08-06T11:15:12.917Z,58.78
2018-08-06T11:17:41.529Z,58.28
2018-08-06T11:20:11.868Z,57.93
2018-08-06T11:22:40.932Z,57.52
2018-08-06T11:25:11.035Z,57.20
2018-08-06T11:27:39.630Z,56.66
2018-08-06T11:30:09.981Z,56.29
2018-08-06T11:32:40.867Z,56.24
2018-08-06T11:35:14.165Z,55.68
2018-08-06T11:37:43.278Z,55.15
2018-08-06T11:40:20.135Z,54.72
2018-08-06T11:42:53.569Z,53.68
2018-08-06T11:45:29.516Z,52.77
2018-08-06T11:48:07.318Z,51.74
2018-08-06T11:50:37.625Z,50.33
2018-08-06T11:53:23.298Z,48.82
2018-08-06T11:55:52.274Z,47.25
2018-08-06T11:58:20.880Z,46.30
2018-08-06T12:00:49.497Z,45.35
2018-08-06T12:03:18.094Z,44.32
2018-08-06T12:05:46.753Z,43.52
2018-08-06T12:08:15.387Z,42.75
2018-08-06T12:10:44.966Z,42.11
2018-08-06T12:13:13.593Z,41.60
2018-08-06T12:15:42.138Z,41.15
2018-08-06T12:18:10.709Z,40.84
2018-08-06T12:20:39.267Z,40.75
2018-08-06T12:23:07.884Z,40.60
2018-08-06T12:25:36.454Z,40.50
2018-08-06T12:28:05.052Z,40.37
2018-08-06T12:30:33.624Z,40.33
2018-08-06T12:33:02.276Z,40.30
2018-08-06T12:35:31.076Z,40.24
2018-08-06T12:37:59.673Z,40.16
2018-08-06T12:40:28.245Z,40.08
2018-08-06T12:42:56.837Z,39.96
2018-08-06T12:45:25.472Z,39.91
2018-08-06T12:47:54.108Z,39.85
2018-08-06T12:50:22.727Z,39.80
2018-08-06T12:52:51.328Z,39.57
2018-08-06T12:55:19.884Z,39.43
2018-08-06T12:57:48.614Z,39.39
2018-08-06T13:00:20.570Z,39.37
2018-08-06T13:02:49.680Z,39.38
2018-08-06T13:05:18.844Z,39.39
2018-08-06T13:07:47.451Z,39.37
2018-08-06T13:10:16.128Z,39.37
2018-08-06T13:12:44.903Z,39.31
2018-08-06T13:15:14.512Z,39.28
2018-08-06T13:17:43.088Z,39.02
2018-08-06T13:20:11.652Z,38.81
2018-08-06T13:22:40.387Z,38.76
2018-08-06T13:25:10.449Z,38.73
2018-08-06T13:27:39.050Z,38.68
2018-08-06T13:30:12.188Z,38.70
2018-08-06T13:32:41.042Z,38.82
2018-08-06T13:35:09.669Z,38.93
2018-08-06T13:37:38.429Z,39.05
2018-08-06T13:40:07.693Z,39.14
2018-08-06T13:42:36.460Z,39.25
2018-08-06T13:45:06.766Z,39.27
2018-08-06T13:47:35.320Z,39.36
2018-08-06T13:50:03.985Z,39.45
2018-08-06T13:52:32.616Z,39.51
2018-08-06T13:55:01.204Z,39.56
2018-08-06T13:57:29.847Z,39.58
2018-08-06T13:59:58.549Z,39.57
2018-08-06T14:02:27.151Z,39.55
2018-08-06T14:04:55.677Z,39.52
2018-08-06T14:07:24.326Z,39.46
2018-08-06T14:09:52.985Z,39.48
2018-08-06T14:12:21.607Z,39.44
2018-08-06T14:14:50.207Z,39.46
2018-08-06T14:17:18.773Z,39.49
2018-08-06T14:19:47.316Z,39.48
2018-08-06T14:22:15.864Z,39.47
2018-08-06T14:24:44.459Z,39.39
2018-08-06T14:27:13.105Z,39.34
2018-08-06T14:29:41.666Z,39.25
2018-08-06T14:32:10.247Z,39.19
2018-08-06T14:34:38.889Z,39.09
2018-08-06T14:37:07.717Z,39.05
2018-08-06T14:39:36.254Z,38.96
2018-08-06T14:42:04.818Z,38.86
2018-08-06T14:44:33.455Z,38.84
2018-08-06T14:47:02.095Z,38.80
2018-08-06T14:49:30.698Z,38.75
2018-08-06T14:51:59.463Z,38.69
2018-08-06T14:54:28.120Z,38.67
2018-08-06T14:56:56.714Z,38.68
2018-08-06T14:59:25.396Z,38.70
2018-08-06T15:01:53.995Z,38.67
2018-08-06T15:04:22.543Z,38.58
2018-08-06T15:06:51.226Z,38.56
2018-08-06T15:09:19.868Z,38.59
2018-08-06T15:11:48.604Z,38.64
2018-08-06T15:14:17.283Z,38.65
2018-08-06T15:16:45.868Z,38.67
2018-08-06T15:19:14.519Z,38.70
2018-08-06T15:21:43.206Z,38.73
2018-08-06T15:24:11.905Z,38.78
2018-08-06T15:26:40.466Z,38.80
2018-08-06T15:29:09.140Z,38.83
2018-08-06T15:31:37.777Z,38.81
2018-08-06T15:34:06.381Z,38.82
2018-08-06T15:36:35.060Z,38.82
2018-08-06T15:39:04.026Z,38.82
2018-08-06T15:41:32.597Z,38.81
2018-08-06T15:44:01.210Z,38.79
2018-08-06T15:46:29.862Z,38.77
2018-08-06T15:48:58.657Z,38.75
2018-08-06T15:51:27.328Z,38.74
2018-08-06T15:53:55.973Z,38.71
2018-08-06T15:56:24.572Z,38.69
2018-08-06T15:58:53.177Z,38.67
2018-08-06T16:01:22.245Z,38.62
2018-08-06T16:03:53.300Z,38.58
2018-08-06T16:06:22.181Z,38.55
2018-08-06T16:08:50.748Z,38.53
2018-08-06T16:11:19.260Z,38.45
2018-08-06T16:13:47.841Z,38.40
2018-08-06T16:16:16.463Z,38.36
2018-08-06T16:18:45.024Z,38.33
2018-08-06T16:21:13.558Z,38.30
2018-08-06T16:23:42.233Z,38.27
2018-08-06T16:26:10.768Z,38.26
2018-08-06T16:28:39.501Z,38.24
2018-08-06T16:31:08.169Z,38.21
2018-08-06T16:33:36.710Z,38.18
2018-08-06T16:36:05.308Z,38.14
2018-08-06T16:38:34.034Z,38.10
2018-08-06T16:41:02.662Z,38.04
2018-08-06T16:43:31.336Z,37.98
2018-08-06T16:46:00.013Z,37.93
2018-08-06T16:48:28.729Z,37.90
2018-08-06T16:50:57.346Z,37.86
2018-08-06T16:53:25.928Z,37.81
2018-08-06T16:55:54.490Z,37.74
2018-08-06T16:58:23.149Z,37.70
2018-08-06T17:00:51.766Z,37.67
2018-08-06T17:03:20.344Z,37.62
2018-08-06T17:05:48.892Z,37.60
2018-08-06T17:08:17.533Z,37.51
2018-08-06T17:10:46.125Z,37.45
2018-08-06T17:13:14.766Z,37.39
2018-08-06T17:15:43.291Z,37.36
2018-08-06T17:18:11.852Z,37.32
2018-08-06T17:20:40.638Z,37.30
2018-08-06T17:23:09.199Z,37.26
2018-08-06T17:25:37.838Z,37.22
2018-08-06T17:28:06.447Z,37.21
2018-08-06T17:30:35.184Z,37.15
2018-08-06T17:33:03.810Z,37.12
2018-08-06T17:35:32.541Z,37.08
2018-08-06T17:38:01.189Z,37.04
2018-08-06T17:40:29.838Z,37.00
2018-08-06T17:42:58.515Z,36.95
2018-08-06T17:45:27.283Z,36.89
2018-08-06T17:47:55.856Z,36.83
2018-08-06T17:50:24.573Z,36.77
2018-08-06T17:52:53.608Z,36.71
2018-08-06T17:55:23.110Z,36.65
2018-08-06T17:57:51.777Z,36.59
2018-08-06T18:00:20.831Z,36.53
2018-08-06T18:02:49.435Z,36.46
2018-08-06T18:05:19.672Z,36.41
2018-08-06T18:07:48.359Z,36.34
2018-08-06T18:10:17.841Z,36.27
2018-08-06T18:12:47.308Z,36.21
2018-08-06T18:15:16.310Z,36.14
2018-08-06T18:17:45.126Z,36.08
2018-08-06T18:20:16.533Z,36.00
2018-08-06T18:22:45.439Z,35.94
2018-08-06T18:25:15.989Z,35.86
2018-08-06T18:27:45.752Z,35.77
2018-08-06T18:30:16.249Z,35.68
2018-08-06T18:32:45.038Z,35.61
2018-08-06T18:35:15.057Z,35.55
2018-08-06T18:37:44.017Z,35.45
2018-08-06T18:40:13.614Z,35.38
2018-08-06T18:42:42.492Z,35.29
2018-08-06T18:45:16.380Z,35.21
2018-08-06T18:47:46.031Z,35.12
2018-08-06T18:50:15.645Z,35.03
2018-08-06T18:52:45.638Z,34.94
2018-08-06T18:55:15.248Z,34.87
2018-08-06T18:57:44.912Z,34.78
2018-08-06T19:00:18.324Z,34.68
2018-08-06T19:02:47.686Z,34.59
2018-08-06T19:05:16.908Z,34.47
2018-08-06T19:07:45.835Z,34.35
2018-08-06T19:10:17.101Z,34.24
2018-08-06T19:12:50.887Z,34.12
2018-08-06T19:15:19.801Z,34.01
2018-08-06T19:17:53.668Z,33.88
2018-08-06T19:20:22.975Z,33.78
2018-08-06T19:22:51.765Z,33.66
2018-08-06T19:25:25.577Z,33.57
2018-08-06T19:27:54.459Z,33.46
2018-08-06T19:30:27.450Z,33.36
2018-08-06T19:32:56.444Z,33.27
2018-08-06T19:35:25.406Z,33.18
2018-08-06T19:37:56.340Z,33.07
2018-08-06T19:40:25.513Z,32.97
2018-08-06T19:42:59.561Z,32.85
2018-08-06T19:45:28.436Z,32.74
2018-08-06T19:47:57.299Z,32.62
2018-08-06T19:50:31.142Z,32.50
2018-08-06T19:53:00.967Z,32.41
2018-08-06T19:55:34.824Z,32.33
2018-08-06T19:58:03.769Z,32.26
2018-08-06T20:00:32.711Z,32.17
2018-08-06T20:03:01.535Z,32.09
2018-08-06T20:05:30.449Z,32.00
2018-08-06T20:07:59.317Z,31.93
2018-08-06T20:10:28.151Z,31.84
2018-08-06T20:12:57.312Z,31.80
2018-08-06T20:15:26.284Z,31.75
2018-08-06T20:17:55.257Z,31.68
2018-08-06T20:20:25.278Z,31.62
2018-08-06T20:22:54.188Z,31.56
2018-08-06T20:25:29.928Z,31.49
2018-08-06T20:27:59.780Z,31.43
2018-08-06T20:30:28.808Z,31.36
2018-08-06T20:32:58.226Z,31.29
2018-08-06T20:35:27.409Z,31.22
2018-08-06T20:37:56.635Z,31.17
2018-08-06T20:40:26.645Z,31.12
2018-08-06T20:42:55.931Z,31.07
2018-08-06T20:45:25.847Z,31.00
2018-08-06T20:47:55.584Z,30.96
2018-08-06T20:50:25.133Z,30.91
2018-08-06T20:52:54.805Z,30.84
2018-08-06T20:55:23.952Z,30.79
2018-08-06T20:57:53.559Z,30.73
2018-08-06T21:00:27.035Z,30.69
2018-08-06T21:02:55.832Z,30.66
2018-08-06T21:05:24.668Z,30.61
2018-08-06T21:07:53.384Z,30.51
2018-08-06T21:10:22.327Z,30.45
2018-08-06T21:12:51.160Z,30.39
2018-08-06T21:15:19.925Z,30.32
2018-08-06T21:17:48.852Z,30.26
2018-08-06T21:20:18.836Z,30.17
2018-08-06T21:22:48.572Z,30.15
2018-08-06T21:25:17.484Z,30.11
2018-08-06T21:27:47.398Z,30.10
2018-08-06T21:30:19.060Z,30.07
2018-08-06T21:32:52.121Z,30.03
2018-08-06T21:35:21.896Z,29.98
2018-08-06T21:37:51.928Z,29.92
2018-08-06T21:40:21.628Z,29.86
2018-08-06T21:42:50.994Z,29.82
2018-08-06T21:45:20.232Z,29.77
2018-08-06T21:47:49.466Z,29.74
2018-08-06T21:50:18.427Z,29.68
2018-08-06T21:52:47.625Z,29.63
2018-08-06T21:55:16.732Z,29.60
2018-08-06T21:57:45.741Z,29.56
2018-08-06T22:00:25.729Z,29.54
2018-08-06T22:02:54.517Z,29.49
2018-08-06T22:05:23.269Z,29.46
2018-08-06T22:07:52.085Z,29.43
2018-08-06T22:10:20.989Z,29.39
2018-08-06T22:12:49.788Z,29.35
2018-08-06T22:15:18.748Z,29.32
2018-08-06T22:17:47.530Z,29.27
2018-08-06T22:20:16.385Z,29.21
2018-08-06T22:22:45.170Z,29.17
2018-08-06T22:25:14.037Z,29.14
2018-08-06T22:27:42.818Z,29.11
2018-08-06T22:30:12.122Z,29.05
2018-08-06T22:32:40.909Z,28.99
2018-08-06T22:35:11.586Z,28.94
2018-08-06T22:37:40.636Z,28.91
2018-08-06T22:40:11.047Z,28.86
2018-08-06T22:42:40.187Z,28.85
2018-08-06T22:45:10.000Z,28.80
2018-08-06T22:47:38.782Z,28.76
2018-08-06T22:50:09.166Z,28.73
2018-08-06T22:52:37.954Z,28.69
2018-08-06T22:55:07.136Z,28.64
2018-08-06T22:57:35.742Z,28.59
2018-08-06T23:00:05.333Z,28.53
2018-08-06T23:02:33.976Z,28.49
2018-08-06T23:05:02.671Z,28.45
2018-08-06T23:07:31.395Z,28.43
2018-08-06T23:10:00.130Z,28.38
2018-08-06T23:12:28.811Z,28.35
2018-08-06T23:14:57.512Z,28.31
2018-08-06T23:17:26.091Z,28.27
2018-08-06T23:19:54.841Z,28.21
2018-08-06T23:22:23.836Z,28.17
2018-08-06T23:24:52.512Z,28.11
2018-08-06T23:27:21.127Z,28.07
2018-08-06T23:29:49.880Z,28.04
2018-08-06T23:32:18.605Z,28.01
2018-08-06T23:34:47.300Z,27.98
2018-08-06T23:37:16.131Z,27.94
2018-08-06T23:39:44.793Z,27.91
2018-08-06T23:42:13.504Z,27.86
2018-08-06T23:44:42.228Z,27.82
2018-08-06T23:47:10.871Z,27.79
2018-08-06T23:49:39.669Z,27.77
2018-08-06T23:52:08.373Z,27.73
2018-08-06T23:54:37.028Z,27.70
2018-08-06T23:57:05.927Z,27.70
2018-08-06T23:59:34.589Z,27.66
